OTBD/DOH METAR and TAF weather

Enter ICAO airport designator
Station Type Date Time Source
OTBD METAR 2021/04/17 01:00 UTC NOAA

OTBD 170100Z 26003KT 220V330 CAVOK 22/09 Q1011 NOSIG


Station Type Date Time Source
OTBD Decoded METAR 2021/04/17 01:00 UTC NOAA

Doha International Airport, Qatar (OTBD) 25-15N 051-34E 10M
Apr 16, 2021 - 09:00 PM EDT / 2021.04.17 0100 UTC
Wind: from the W (260 degrees) at 3 MPH (3 KT) (direction variable):0
Visibility: greater than 7 mile(s):0
Temperature: 71 F (22 C)
Dew Point: 48 F (9 C)
Relative Humidity: 43%
Pressure (altimeter): 29.85 in. Hg (1011 hPa)
ob: OTBD 170100Z 26003KT 220V330 CAVOK 22/09 Q1011 NOSIG
cycle: 1

Station Type Date Time Source
OTBD TAF 2021/04/16 18:15 UTC NOAA

TAF TAF OTBD 161711Z 1618/1724 27006KT 9000 NSC
TEMPO 1709/1712 34014KT

Example: see airport list